Home > Products > Valid Products > TAF

000
FTUS44 KMEG 300200 AAA
TAFMEM
TAF AMD
KMEM 300257Z 3003/3024 21006KT P6SM FEW060 BKN150
     FM300900 19007KT P6SM VCTS SCT050CB OVC120
      TEMPO 3010/3014 5SM -TSRA BKN050CB
     FM301600 18010KT P6SM -SHRA VCTS BKN035 OVC050CB=



000
FTUS44 KMEG 300100 AAA
TAFJBR
TAF AMD
KJBR 300103Z 3001/3024 19007KT P6SM VCTS SCT050CB BKN150
      TEMPO 3001/3003 4SM -TSRA BKN015CB
     FM300300 20005KT P6SM VCSH SCT050 OVC150
     FM300700 20004KT 6SM -SHRA BKN050
      TEMPO 3010/3014 5SM -TSRA BKN050CB
     FM301600 18010KT P6SM -SHRA VCTS BKN030CB OVC045=



000
FTUS44 KMEG 292300
TAFMEM
TAF
KMEM 292338Z 3000/3024 17007KT P6SM VCSH SCT050 SCT150
     FM300700 19007KT P6SM VCTS SCT050CB OVC120
      TEMPO 3010/3014 5SM -TSRA BKN050CB
     FM301600 18010KT P6SM -SHRA VCTS BKN035 OVC050CB=



000
FTUS44 KMEG 292300
TAFJBR
TAF
KJBR 292338Z 3000/3024 19007KT P6SM VCTS SCT050CB BKN150
      TEMPO 3000/3003 4SM -TSRA BKN035CB
     FM300300 20005KT P6SM VCSH SCT050 OVC150
     FM300700 20004KT 6SM -SHRA BKN050
      TEMPO 3010/3014 5SM -TSRA BKN050CB
     FM301600 18010KT P6SM -SHRA VCTS BKN030CB OVC045=



000
FTUS44 KMEG 292300
TAFTUP
TAF
KTUP 292338Z 3000/3024 18003KT P6SM SCT250
     FM301000 21004KT P6SM VCSH BKN040
     FM301600 18008KT P6SM -SHRA VCTS BKN045CB
      TEMPO 3019/3023 4SM -TSRA BKN035CB OVC050=



000
FTUS44 KMEG 292300
TAFMKL
TAF
KMKL 292338Z 3000/3024 20005KT P6SM SCT150
     FM301000 19005KT P6SM VCSH SCT060 OVC250
     FM301700 20008KT P6SM -SHRA VCTS SCT045 BKN060CB=



000
FTUS44 KMEG 292100 AAD
TAFMEM
TAF AMD
KMEM 292102Z 2921/3018 20009KT P6SM SCT060
     FM300100 18005KT P6SM VCSH FEW060 SCT150 BKN250
     FM300700 19004KT P6SM VCTS SCT050CB OVC120
      TEMPO 3008/3012 VRB10KT 6SM -TSRA BKN050CB
     FM301500 20007KT P6SM -SHRA VCTS SCT030 BKN045CB=



000
FTUS44 KMEG 292000 AAB
TAFJBR
TAF AMD
KJBR 292033Z 2921/3018 20010KT P6SM SCT050
     FM292300 19007KT P6SM VCTS SCT060CB BKN150
     FM300300 20005KT P6SM VCSH SCT060 OVC150
     FM300700 20004KT 6SM -SHRA BKN060
     FM301200 21005KT P6SM -SHRA VCTS SCT030 BKN045CB
      TEMPO 3014/3018 5SM -TSRA BKN035CB=



000
FTUS44 KMEG 291900 AAC
TAFMEM
TAF AMD
KMEM 291915Z 2919/3018 19008KT P6SM VCTS FEW050CB SCT060
      TEMPO 2919/2920 VRB10KT 6SM -TSRA SCT050CB
     FM292030 20009KT P6SM SCT060
     FM300100 18005KT P6SM SCT150 BKN250
     FM300700 19004KT P6SM VCTS SCT060CB OVC120
      TEMPO 3008/3012 VRB10KT 6SM -TSRA BKN060CB
     FM301500 20007KT P6SM -SHRA VCTS SCT030 BKN045CB=



000
FTUS44 KMEG 291800 AAB
TAFMEM
TAF AMD
KMEM 291830Z 2919/3018 19008KT P6SM VCTS FEW050CB SCT060
     FM292030 20009KT P6SM SCT060
     FM300100 18005KT P6SM SCT150 BKN250
     FM300700 19004KT P6SM VCTS SCT060CB OVC120
      TEMPO 3008/3012 VRB10KT 6SM -TSRA BKN060CB
     FM301500 20007KT P6SM -SHRA VCTS SCT030 BKN045CB=



000
FTUS44 KMEG 291700 AAA
TAFJBR
TAF AMD
KJBR 291750Z 2918/3018 20010KT P6SM VCTS SCT060CB
      TEMPO 2920/2922 VRB10KT 6SM -TSRA
     FM300000 19007KT P6SM SCT060 BKN150
     FM300300 20005KT P6SM VCSH SCT060 OVC150
     FM300700 20004KT 6SM -SHRA BKN060
     FM301200 21005KT P6SM -SHRA VCTS SCT030 BKN045CB
      TEMPO 3014/3018 5SM -TSRA BKN035CB=



000
FTUS44 KMEG 291700 AAA
TAFMEM
TAF AMD
KMEM 291736Z 2918/3018 20008KT P6SM SCT050 SCT250
     FM300100 18005KT P6SM SCT150 BKN250
     FM300700 19004KT P6SM VCTS SCT060CB OVC120
      TEMPO 3008/3012 VRB10KT 6SM -TSRA BKN060CB
     FM301500 20007KT P6SM -SHRA VCTS SCT030 BKN045CB=



000
FTUS44 KMEG 291700
TAFMEM
TAF
KMEM 291731Z 2918/3018 20008KT P6SM SCT050 SCT250
     FM300100 18005KT P6SM SCT150 BKN250
     FM300700 19004KT P6SM VCSH SCT060 OVC120
      TEMPO 3008/3012 6SM -SHRA
     FM301500 20007KT P6SM -SHRA VCTS SCT030 BKN045CB=



000
FTUS44 KMEG 291700
TAFJBR
TAF
KJBR 291731Z 2918/3018 21010KT P6SM SCT060 BKN120
     FM300100 19007KT P6SM BKN150
     FM300300 20005KT P6SM VCSH SCT060 OVC150
     FM300700 20004KT 6SM -SHRA BKN060
     FM301200 21005KT P6SM -SHRA VCTS SCT030 BKN045CB
      TEMPO 3014/3018 5SM -TSRA BKN035CB=



000
FTUS44 KMEG 291700
TAFMKL
TAF
KMKL 291731Z 2918/3018 20005KT P6SM FEW060 SCT250
     FM300000 18003KT P6SM FEW150 BKN250
     FM301000 19005KT P6SM VCSH SCT060 OVC250
      TEMPO 3010/3014 4SM -SHRA BR
     FM301500 21005KT P6SM -SHRA VCTS SCT030 BKN045CB=



000
FTUS44 KMEG 291700
TAFTUP
TAF
KTUP 291731Z 2918/3018 19008KT P6SM SCT060 SCT250
     FM300000 18003KT P6SM SCT250
     FM301000 21004KT 6SM BR VCSH BKN040
      TEMPO 3011/3015 -SHRA
     FM301500 20005KT P6SM -SHRA VCTS SCT045CB BKN060=



000
FTUS44 KMEG 291500 AAB
TAFMEM
TAF AMD
KMEM 291514Z 2915/3012 20007KT P6SM SCT050 SCT100 SCT250
     FM300100 18005KT P6SM SCT120 BKN250
     FM300700 19004KT P6SM VCSH SCT060 OVC120
      TEMPO 3008/3012 6SM -SHRA=



000
FTUS44 KMEG 291400 AAA
TAFJBR
TAF AMD
KJBR 291427Z 2914/3012 22006KT P6SM FEW040 SCT120
     FM291900 21010KT P6SM SCT060 BKN120
     FM300100 19005KT P6SM SCT060 OVC150
     FM300300 20005KT P6SM VCSH SCT060 OVC150
     FM300700 20004KT 6SM -SHRA BKN060=



000
FTUS44 KMEG 291400 AAA
TAFMEM
TAF AMD
KMEM 291420Z 2914/3012 20008KT P6SM SCT050 BKN250
     FM300100 18005KT P6SM BKN250
     FM300700 19004KT P6SM VCSH SCT060 OVC150
      TEMPO 3008/3012 6SM -SHRA=



000
FTUS44 KMEG 291100
TAFMKL
TAF
KMKL 291131Z 2912/3012 00000KT 5SM BR SKC
     FM291400 14003KT P6SM FEW250
     FM291700 20005KT P6SM FEW060 SCT250
     FM300000 18003KT P6SM BKN250
     FM301000 19005KT P6SM VCSH SCT060 OVC250=



000
FTUS44 KMEG 291100
TAFMEM
TAF
KMEM 291131Z 2912/3012 16005KT P6SM FEW150
     FM291800 19010KT P6SM SCT060 BKN250
     FM300100 18005KT P6SM OVC250
     FM300900 19005KT P6SM VCSH SCT060 OVC250=



000
FTUS44 KMEG 291100
TAFJBR
TAF
KJBR 291131Z 2912/3012 00000KT P6SM SKC
     FM291900 21010KT P6SM SCT060 BKN250
     FM300100 19005KT P6SM OVC250
     FM300700 20005KT P6SM VCSH SCT060 OVC250=



000
FTUS44 KMEG 291100
TAFTUP
TAF
KTUP 291131Z 2912/3012 00000KT P6SM SKC
     FM291600 20005KT P6SM FEW250
     FM300000 18003KT P6SM BKN250=



000
FTUS44 KMEG 290800 AAA
TAFMEM
TAF AMD
KMEM 290859Z 2909/3006 14005KT P6SM FEW150
     FM291600 19008KT P6SM SCT060 BKN250
     FM300000 19008KT P6SM VCSH SCT060 BKN150=



000
FTUS44 KMEG 290500
TAFMEM
TAF
KMEM 290530Z 2906/3006 09005KT P6SM SCT060 SCT250
     FM291600 19008KT P6SM SCT060 BKN250
     FM300000 19008KT P6SM VCSH SCT060 BKN150=



000
FTUS44 KMEG 290500
TAFTUP
TAF
KTUP 290530Z 2906/3006 00000KT P6SM FEW060 SCT250
      TEMPO 2911/2913 5SM BR
     FM291600 22006KT P6SM SCT060 BKN250
     FM300000 20004KT P6SM VCSH SCT060 BKN150=



000
FTUS44 KMEG 290500
TAFMKL
TAF
KMKL 290530Z 2906/3006 00000KT P6SM FEW060 FEW250
      TEMPO 2907/2911 4SM BR
     FM291700 20007KT P6SM SCT060 BKN250
     FM300000 19005KT P6SM VCSH SCT060 BKN150=



000
FTUS44 KMEG 290500
TAFJBR
TAF
KJBR 290530Z 2906/3006 VRB03KT P6SM SCT080
     FM291500 21009KT P6SM SCT060 BKN250
     FM292300 20008KT P6SM VCSH SCT060 BKN150=



000
FTUS44 KMEG 290300 AAA
TAFMEM
TAF AMD
KMEM 290301Z 2903/2924 11003KT P6SM FEW250
     FM291600 19008KT P6SM SCT060 SCT250=



000
FTUS44 KMEG 282300
TAFMEM
TAF
KMEM 282321Z 2900/2924 22006KT P6SM SCT060 BKN250
     FM290200 16003KT P6SM FEW250
     FM291600 19008KT P6SM SCT060 SCT250=



000
FTUS44 KMEG 282300
TAFTUP
TAF
KTUP 282321Z 2900/2924 21004KT P6SM FEW060 FEW250
     FM290200 00000KT P6SM FEW250
      TEMPO 2911/2913 5SM BR
     FM291600 22006KT P6SM SCT060 SCT250=



000
FTUS44 KMEG 282300
TAFJBR
TAF
KJBR 282321Z 2900/2924 VRB03KT P6SM FEW250
     FM291600 20009KT P6SM SCT060 SCT250=



000
FTUS44 KMEG 282300
TAFMKL
TAF
KMKL 282321Z 2900/2924 VRB03KT P6SM SCT060 SCT250
     FM290200 00000KT P6SM FEW250
     FM290600 00000KT 5SM BR SKC
     FM291600 19007KT P6SM SCT060 SCT250=



000
FTUS44 KMEG 282100 AAA
TAFMEM
TAF AMD
KMEM 282102Z 2821/2918 17007KT P6SM SCT060 SCT250
     FM290200 16003KT P6SM SCT250
     FM291600 19005KT P6SM SCT050=



000
FTUS44 KMEG 281700
TAFTUP
TAF
KTUP 281730Z 2818/2918 19005KT P6SM FEW050 FEW250
     FM290200 00000KT P6SM SKC
      TEMPO 2911/2913 5SM BR
     FM291600 22006KT P6SM SCT050=



000
FTUS44 KMEG 281700
TAFMEM
TAF
KMEM 281730Z 2818/2918 17005KT P6SM SCT050 SCT250
     FM290200 16003KT P6SM SCT250
     FM291600 19005KT P6SM SCT050=



000
FTUS44 KMEG 281700
TAFJBR
TAF
KJBR 281730Z 2818/2918 17006KT P6SM SCT050 SCT250
     FM290000 VRB02KT P6SM FEW250
     FM291600 20007KT P6SM SCT050=



000
FTUS44 KMEG 281700
TAFMKL
TAF
KMKL 281730Z 2818/2918 VRB03KT P6SM SCT050 SCT250
     FM290200 00000KT P6SM FEW250
     FM290600 00000KT 5SM BR SKC
     FM291600 19005KT P6SM SCT050=



000
FTUS44 KMEG 281400 AAA
TAFMEM
TAF AMD
KMEM 281448Z 2815/2912 VRB02KT P6SM FEW250
     FM281600 20005KT P6SM SCT050 SCT250
     FM290200 16003KT P6SM SCT250=



000
FTUS44 KMEG 281100
TAFTUP
TAF
KTUP 281120Z 2812/2912 00000KT 5SM BR SKC
     FM281400 19005KT P6SM FEW050 FEW250
     FM290200 00000KT P6SM SKC
     FM290600 00000KT 5SM BR SKC=



000
FTUS44 KMEG 281100
TAFJBR
TAF
KJBR 281120Z 2812/2912 00000KT P6SM SCT250
     FM281400 18006KT P6SM SCT050 SCT250
     FM290000 14004KT P6SM VCSH SCT050 BKN250=



000
FTUS44 KMEG 281100
TAFMKL
TAF
KMKL 281120Z 2812/2912 00000KT 5SM BR FEW250
     FM281400 VRB03KT P6SM SCT050 SCT250
     FM290200 00000KT P6SM FEW050 SCT250
     FM290600 00000KT 5SM BR SKC=



000
FTUS44 KMEG 281100
TAFMEM
TAF
KMEM 281120Z 2812/2912 13002KT P6SM FEW250
     FM281400 19006KT P6SM SCT050 SCT250
     FM290200 16003KT P6SM FEW050 BKN250=



000
FTUS44 KMEG 281000 AAA
TAFMKL
TAF AMD
KMKL 281016Z 2810/2906 00000KT 5SM BR FEW250
     FM281400 VRB03KT P6SM SCT050 SCT250
     FM290200 00000KT P6SM FEW050 SCT250=



000
FTUS44 KMEG 280800 AAA
TAFMEM
TAF AMD
KMEM 280850Z 2809/2906 13002KT P6SM FEW250
     FM281400 19006KT P6SM SCT050 SCT250
     FM290200 16003KT P6SM FEW050 BKN250=



000
FTUS44 KMEG 280500
TAFMEM
TAF
KMEM 280520Z 2806/2906 13003KT P6SM FEW250
     FM281400 19006KT P6SM SCT050 SCT250
     FM290200 16003KT P6SM FEW050 BKN250=



000
FTUS44 KMEG 280500
TAFJBR
TAF
KJBR 280520Z 2806/2906 00000KT P6SM SCT250
      TEMPO 2810/2813 5SM BR
     FM281400 18006KT P6SM SCT050 SCT250
     FM290000 14004KT P6SM VCSH SCT050 BKN250=



000
FTUS44 KMEG 280500
TAFMKL
TAF
KMKL 280520Z 2806/2906 00000KT 5SM BR FEW250
      TEMPO 2809/2812 1SM BR
     FM281400 VRB03KT P6SM SCT050 SCT250
     FM290200 00000KT P6SM FEW050 SCT250=



000
FTUS44 KMEG 280500
TAFTUP
TAF
KTUP 280520Z 2806/2906 00000KT P6SM FEW250
     FM281000 00000KT 5SM BR SKC
      TEMPO 2811/2813 2SM BR
     FM281400 19005KT P6SM FEW050 FEW250
     FM290200 00000KT P6SM SKC=



000
FTUS44 KMEG 280200 AAA
TAFMEM
TAF AMD
KMEM 280258Z 2803/2824 10005KT P6SM FEW050 FEW250
     FM281400 18006KT P6SM SCT050 SCT250=



000
FTUS44 KMEG 272300
TAFTUP
TAF
KTUP 272327Z 2800/2824 00000KT P6SM FEW250
     FM281000 00000KT 5SM BR SKC
      TEMPO 2811/2813 2SM BR
     FM281400 19005KT P6SM FEW050 FEW250=



000
FTUS44 KMEG 272300
TAFJBR
TAF
KJBR 272327Z 2800/2824 VRB03KT P6SM FEW050 FEW250
      TEMPO 2810/2813 5SM BR
     FM281400 18006KT P6SM SCT050 SCT250=



000
FTUS44 KMEG 272300
TAFMKL
TAF
KMKL 272327Z 2800/2824 00000KT P6SM FEW050 FEW250
     FM280700 00000KT 4SM BR SKC
      TEMPO 2809/2812 1SM BR
     FM281400 18005KT P6SM SCT050 SCT250=



000
FTUS44 KMEG 272300
TAFMEM
TAF
KMEM 272327Z 2800/2824 15004KT P6SM FEW050 FEW250
     FM281400 18006KT P6SM SCT050 SCT250=



000
FTUS44 KMEG 272100 AAA
TAFMEM
TAF AMD
KMEM 272103Z 2721/2818 10007KT P6SM SCT050 BKN250
     FM280300 14003KT P6SM SKC
     FM281500 20005KT P6SM FEW050 SCT250=



000
FTUS44 KMEG 271700
TAFTUP
TAF
KTUP 271728Z 2718/2818 00000KT P6SM SKC
     FM280100 00000KT P6SM SKC
     FM280800 00000KT 4SM BR SKC
     FM281400 18005KT P6SM SCT050=



000
FTUS44 KMEG 271700
TAFMKL
TAF
KMKL 271728Z 2718/2818 10004KT P6SM FEW250
     FM280100 00000KT P6SM SKC
     FM280600 00000KT 3SM BR SKC
      TEMPO 2808/2812 3/4SM BR SKC
     FM281300 00000KT 6SM BR SKC
     FM281500 20003KT P6SM SCT050=



000
FTUS44 KMEG 271700
TAFMEM
TAF
KMEM 271728Z 2718/2818 08007KT P6SM SCT050 BKN250
     FM280300 14003KT P6SM SKC
     FM281500 20005KT P6SM FEW050 SCT250=



000
FTUS44 KMEG 271700
TAFJBR
TAF
KJBR 271728Z 2718/2818 11005KT P6SM SCT050 SCT250
     FM280100 00000KT P6SM SKC
     FM281000 00000KT 5SM BR SKC
     FM281400 18005KT P6SM SCT050=



000
FTUS44 KMEG 271500 AAA
TAFMEM
TAF AMD
KMEM 271500Z 2715/2812 09006KT P6SM FEW050 FEW250
     FM280300 14003KT P6SM SKC=



000
FTUS44 KMEG 271200 AAA
TAFMKL
TAF AMD
KMKL 271245Z 2713/2812 06005KT P6SM FEW250
     FM280100 00000KT P6SM SKC
     FM280600 00000KT 3SM BR BCFG SKC=



000
FTUS44 KMEG 271100
TAFMEM
TAF
KMEM 271120Z 2712/2812 00000KT P6SM FEW250
     FM271500 07005KT P6SM FEW050 SCT250
     FM280300 14003KT P6SM SKC=



000
FTUS44 KMEG 271100
TAFMKL
TAF
KMKL 271120Z 2712/2812 00000KT 2SM BR SKC
     FM271300 06005KT P6SM FEW250
     FM280100 00000KT P6SM SKC
     FM280600 00000KT 3SM BR BCFG SKC=



000
FTUS44 KMEG 271100
TAFTUP
TAF
KTUP 271120Z 2712/2812 00000KT P6SM SKC
     FM271400 08005KT P6SM FEW250
     FM280100 00000KT P6SM SKC
     FM280800 00000KT 4SM BR SKC=



000
FTUS44 KMEG 271100
TAFJBR
TAF
KJBR 271120Z 2712/2812 00000KT P6SM SCT050 SCT250
     FM271500 10005KT P6SM FEW250
     FM280100 00000KT P6SM SKC=



000
FTUS44 KMEG 270900 AAA
TAFMKL
TAF AMD
KMKL 270938Z 2710/2806 00000KT 2SM BR SKC
      TEMPO 2710/2713 1/2SM FG VV001
     FM271500 06005KT P6SM FEW250
     FM280100 00000KT P6SM SKC=



000
FTUS44 KMEG 270800 AAA
TAFMEM
TAF AMD
KMEM 270850Z 2709/2806 00000KT P6SM FEW250
     FM271700 07005KT P6SM FEW050 SCT250
     FM280300 14003KT P6SM SKC=



000
FTUS44 KMEG 270500
TAFJBR
TAF
KJBR 270531Z 2706/2806 00000KT P6SM SKC
      TEMPO 2709/2712 5SM BR
     FM271500 09005KT P6SM FEW250
     FM280100 00000KT P6SM SKC=



000
FTUS44 KMEG 270500
TAFMEM
TAF
KMEM 270531Z 2706/2806 11005KT P6SM SKC
     FM271200 00000KT P6SM FEW250
     FM271700 07005KT P6SM FEW050 SCT250
     FM280300 14003KT P6SM SKC=



000
FTUS44 KMEG 270500
TAFMKL
TAF
KMKL 270531Z 2706/2806 00000KT 4SM BR SKC
      TEMPO 2709/2713 1SM BR VV001
     FM271500 06005KT P6SM FEW250
     FM280100 00000KT P6SM SKC=



000
FTUS44 KMEG 270500
TAFTUP
TAF
KTUP 270531Z 2706/2806 00000KT P6SM SKC
      TEMPO 2709/2713 5SM BR SCT030
     FM271500 08005KT P6SM FEW250
     FM280100 00000KT P6SM SKC=



    US Dept of Commerce
    National Oceanic and Atmospheric Administration
    National Weather Service
    1325 East West Highway
    Silver Spring, MD 20910
    Page Author: NWS Internet Services Team
Disclaimer
Information Quality
Credits
Glossary
Privacy Policy
Freedom of Information Act (FOIA)
About Us
Career Opportunities